Time;durP1;ratioP1;P1;durP2;ratioP2;P2;SDS_P1;SDS_P2;PMS_P1;PMS_P2;Temp;Humidity;BMP_temperature;BMP_pressure;BME280_temperature;BME280_humidity;BME280_pressure;Samples;Min_cycle;Max_cycle;Signal;HPM_P1;HPM_P2
2021/12/28 00:01:22;;;;;;;;;;;;;;;8.76;78.49;99382.19;5052902;28;19956;-72
2021/12/28 00:03:47;;;;;;;;;;;;;;;8.75;78.92;99375.81;5051162;28;19924;-72
2021/12/28 00:06:14;;;;;;;;;;;;;;;8.75;78.81;99375.00;5050822;28;20461;-72
2021/12/28 00:08:39;;;;;;;;;;;;;;;8.73;78.50;99372.53;5052636;28;19952;-71
2021/12/28 00:11:05;;;;;;;;;;;;;;;8.72;78.75;99370.84;5050730;28;20014;-71
2021/12/28 00:13:32;;;;;;;;;;;;;;;8.72;78.68;99364.47;5050909;28;19929;-71
2021/12/28 00:16:13;;;;;;;;;;;;;;;8.73;78.69;99369.75;5051643;28;19919;-72
2021/12/28 00:18:38;;;;;;;;;;;;;;;8.75;78.59;99372.25;5052887;28;19929;-72
2021/12/28 00:21:05;;;;;;;;;;;;;;;8.73;78.37;99378.06;5052589;28;19924;-72
2021/12/28 00:23:36;;;;;;;;;;;;;;;8.71;78.77;99368.38;5051853;28;19944;-72
2021/12/28 00:26:03;;;;;;;;;;;;;;;8.70;78.78;99366.72;5048894;28;19990;-72
2021/12/28 00:28:28;;;;;;;;;;;;;;;8.67;78.07;99354.25;5048675;28;19935;-71
2021/12/28 00:30:54;;;;;;;;;;;;;;;8.66;78.69;99358.13;5042802;28;19921;-71
2021/12/28 00:33:20;;;;;;;;;;;;;;;8.66;78.91;99355.38;5047276;28;20306;-72
2021/12/28 00:35:45;;;;;;;;;;;;;;;8.67;78.90;99350.66;5050945;28;19925;-72
2021/12/28 00:38:18;;;;;;;;;;;;;;;8.67;79.01;99358.97;5051755;28;19921;-71
2021/12/28 00:40:44;;;;;;;;;;;;;;;8.69;78.42;99354.00;5049035;28;19963;-72
2021/12/28 00:43:09;;;;;;;;;;;;;;;8.68;78.74;99346.78;5052834;28;19920;-71
2021/12/28 00:45:34;;;;;;;;;;;;;;;8.69;78.18;99348.47;5047067;28;19921;-71
2021/12/28 00:47:59;;;;;;;;;;;;;;;8.67;77.95;99345.97;5053019;28;20023;-71
2021/12/28 00:50:26;;;;;;;;;;;;;;;8.67;78.66;99345.13;5041676;28;19925;-72
2021/12/28 00:52:52;;;;;;;;;;;;;;;8.67;78.67;99348.72;5039843;28;20343;-71
2021/12/28 00:55:18;;;;;;;;;;;;;;;8.66;78.73;99338.78;5047887;28;20372;-72
2021/12/28 00:57:44;;;;;;;;;;;;;;;8.67;78.45;99334.06;5052524;28;19939;-71
2021/12/28 01:00:11;;;;;;;;;;;;;;;8.67;78.86;99336.84;5047896;28;20457;-71
2021/12/28 01:02:37;;;;;;;;;;;;;;;8.68;78.35;99338.50;5051193;28;19921;-71
2021/12/28 01:05:02;;;;;;;;;;;;;;;8.66;78.13;99338.78;5054097;28;20028;-71
2021/12/28 01:07:27;;;;;;;;;;;;;;;8.67;78.55;99323.00;5054209;28;19932;-72
2021/12/28 01:09:52;;;;;;;;;;;;;;;8.68;78.85;99330.19;5056004;28;19924;-72
2021/12/28 01:12:18;;;;;;;;;;;;;;;8.66;78.46;99315.81;5054306;28;19995;-73
2021/12/28 01:14:43;;;;;;;;;;;;;;;8.69;78.79;99320.81;5056201;28;19943;-72
2021/12/28 01:17:09;;;;;;;;;;;;;;;8.69;78.11;99318.03;5054159;28;19921;-72
2021/12/28 01:19:34;;;;;;;;;;;;;;;8.71;77.82;99318.56;5055199;28;19920;-71
2021/12/28 01:22:01;;;;;;;;;;;;;;;8.71;78.80;99322.16;5051488;28;20363;-71
2021/12/28 01:24:27;;;;;;;;;;;;;;;8.72;77.85;99323.00;5055929;28;19944;-72
2021/12/28 01:26:52;;;;;;;;;;;;;;;8.71;78.14;99315.81;5049752;28;19924;-73
2021/12/28 01:29:17;;;;;;;;;;;;;;;8.70;78.24;99309.44;5055143;28;20360;-72
2021/12/28 01:31:42;;;;;;;;;;;;;;;8.70;78.46;99314.97;5055448;28;19928;-72
2021/12/28 01:34:08;;;;;;;;;;;;;;;8.71;78.59;99318.56;5054224;28;19920;-72
2021/12/28 01:36:33;;;;;;;;;;;;;;;8.71;78.13;99313.03;5051819;28;19976;-72
2021/12/28 01:38:59;;;;;;;;;;;;;;;8.69;77.85;99310.56;5055228;28;19920;-71
2021/12/28 01:41:24;;;;;;;;;;;;;;;8.71;77.79;99319.41;5054748;28;19923;-72
2021/12/28 01:43:56;;;;;;;;;;;;;;;8.70;78.44;99317.75;5054583;28;19921;-72
2021/12/28 01:46:22;;;;;;;;;;;;;;;8.72;78.46;99315.50;5054432;28;19921;-72
2021/12/28 01:48:47;;;;;;;;;;;;;;;8.70;77.88;99316.91;5053246;28;19921;-71
2021/12/28 01:51:14;;;;;;;;;;;;;;;8.69;78.32;99312.50;5051576;28;19924;-72
2021/12/28 01:53:40;;;;;;;;;;;;;;;8.68;78.09;99310.81;5055611;28;20360;-72
2021/12/28 01:56:07;;;;;;;;;;;;;;;8.68;77.98;99308.06;5053322;28;19970;-71
2021/12/28 01:58:32;;;;;;;;;;;;;;;8.69;77.49;99312.50;5048571;28;19920;-72
2021/12/28 02:00:58;;;;;;;;;;;;;;;8.68;78.10;99308.06;5049375;28;19928;-71
2021/12/28 02:03:24;;;;;;;;;;;;;;;8.71;77.95;99307.50;5044640;28;19921;-72
2021/12/28 02:05:50;;;;;;;;;;;;;;;8.70;77.86;99301.16;5049492;28;20410;-72
2021/12/28 02:08:16;;;;;;;;;;;;;;;8.70;78.04;99306.69;5055375;28;19921;-71
2021/12/28 02:10:43;;;;;;;;;;;;;;;8.71;77.98;99308.34;5053493;28;19928;-71
2021/12/28 02:13:08;;;;;;;;;;;;;;;8.72;77.97;99298.09;5053484;28;19924;-72
2021/12/28 02:15:34;;;;;;;;;;;;;;;8.73;78.11;99305.31;5053532;28;20417;-71
2021/12/28 02:17:59;;;;;;;;;;;;;;;8.72;77.81;99303.63;5054147;28;20011;-72
2021/12/28 02:20:25;;;;;;;;;;;;;;;8.74;77.76;99306.97;5054555;28;19986;-71
2021/12/28 02:22:50;;;;;;;;;;;;;;;8.75;78.48;99308.59;5053582;28;19925;-71
2021/12/28 02:25:16;;;;;;;;;;;;;;;8.77;78.18;99306.41;5053846;28;19925;-71
2021/12/28 02:27:42;;;;;;;;;;;;;;;8.77;78.29;99306.41;5052304;28;19921;-72
2021/12/28 02:30:09;;;;;;;;;;;;;;;8.77;78.14;99298.09;5049134;28;19927;-72
2021/12/28 02:32:36;;;;;;;;;;;;;;;8.78;77.95;99291.47;5046474;28;20387;-72
2021/12/28 02:35:01;;;;;;;;;;;;;;;8.78;77.93;99297.00;5043828;28;19978;-71
2021/12/28 02:37:27;;;;;;;;;;;;;;;8.78;78.02;99285.94;5053044;28;20306;-71
2021/12/28 02:39:52;;;;;;;;;;;;;;;8.78;78.42;99291.47;5053590;28;19920;-71
2021/12/28 02:42:19;;;;;;;;;;;;;;;8.79;78.13;99291.16;5052432;28;20394;-72
2021/12/28 02:44:44;;;;;;;;;;;;;;;8.80;78.01;99287.31;5052954;28;19920;-71
2021/12/28 02:47:09;;;;;;;;;;;;;;;8.81;77.87;99288.97;5052487;28;19921;-72
2021/12/28 02:49:36;;;;;;;;;;;;;;;8.82;77.93;99287.03;5053441;28;19979;-71
2021/12/28 02:52:01;;;;;;;;;;;;;;;8.83;78.48;99283.16;5052681;28;19928;-72
2021/12/28 02:54:26;;;;;;;;;;;;;;;8.83;78.43;99274.84;5053129;28;20572;-71
2021/12/28 02:56:52;;;;;;;;;;;;;;;8.82;78.14;99275.97;5047089;28;20016;-71
2021/12/28 02:59:17;;;;;;;;;;;;;;;8.81;78.64;99268.78;5052247;28;20275;-71
2021/12/28 03:01:42;;;;;;;;;;;;;;;8.82;77.87;99265.72;5052898;28;19955;-71
2021/12/28 03:04:09;;;;;;;;;;;;;;;8.83;78.31;99264.59;5049086;28;21269;-72
2021/12/28 03:06:35;;;;;;;;;;;;;;;8.82;77.81;99260.19;5053671;28;20283;-71
2021/12/28 03:09:02;;;;;;;;;;;;;;;8.84;78.42;99268.19;5054018;28;19972;-71
2021/12/28 03:11:28;;;;;;;;;;;;;;;8.85;78.29;99261.56;5054133;28;19943;-71
2021/12/28 03:13:54;;;;;;;;;;;;;;;8.83;78.43;99258.25;5053233;28;20351;-71
2021/12/28 03:16:20;;;;;;;;;;;;;;;8.82;78.06;99260.19;5053258;28;19955;-71
2021/12/28 03:18:46;;;;;;;;;;;;;;;8.84;78.42;99262.66;5052436;28;20265;-72
2021/12/28 03:21:13;;;;;;;;;;;;;;;8.84;78.37;99262.66;5048403;28;20376;-71
2021/12/28 03:23:39;;;;;;;;;;;;;;;8.84;78.26;99255.22;5053035;28;19917;-71
2021/12/28 03:26:05;;;;;;;;;;;;;;;8.84;78.01;99257.97;5051555;28;20279;-72
2021/12/28 03:28:32;;;;;;;;;;;;;;;8.83;78.37;99244.41;5053208;28;19978;-72
2021/12/28 03:31:00;;;;;;;;;;;;;;;8.84;78.31;99251.59;5052892;28;19920;-71
2021/12/28 03:33:26;;;;;;;;;;;;;;;8.84;78.14;99246.91;5051367;28;20462;-71
2021/12/28 03:35:51;;;;;;;;;;;;;;;8.85;78.71;99244.97;5052235;28;19925;-72
2021/12/28 03:38:17;;;;;;;;;;;;;;;8.85;78.19;99242.19;5051219;28;20307;-72
2021/12/28 03:40:43;;;;;;;;;;;;;;;8.88;78.30;99240.78;5051362;28;20008;-73
2021/12/28 03:43:08;;;;;;;;;;;;;;;8.88;78.31;99236.09;5048101;28;20000;-71
2021/12/28 03:45:33;;;;;;;;;;;;;;;8.90;78.64;99233.88;5046891;28;20029;-72
2021/12/28 03:47:58;;;;;;;;;;;;;;;8.92;78.50;99233.59;5052306;28;19931;-72
2021/12/28 03:50:25;;;;;;;;;;;;;;;8.93;78.49;99227.78;5052115;28;19983;-71
2021/12/28 03:52:51;;;;;;;;;;;;;;;8.92;78.81;99226.13;5052981;28;20294;-72
2021/12/28 03:55:17;;;;;;;;;;;;;;;8.95;78.41;99221.97;5047468;28;19921;-73
2021/12/28 03:57:42;;;;;;;;;;;;;;;8.93;78.03;99213.94;5053537;28;19925;-71
2021/12/28 04:00:09;;;;;;;;;;;;;;;8.93;78.46;99216.72;5049419;28;20422;-72
2021/12/28 04:02:34;;;;;;;;;;;;;;;8.94;78.77;99215.59;5052181;28;20011;-72
2021/12/28 04:04:59;;;;;;;;;;;;;;;8.95;78.16;99217.25;5053178;28;19968;-72
2021/12/28 04:07:24;;;;;;;;;;;;;;;8.97;78.54;99216.97;5052497;28;19959;-73
2021/12/28 04:12:15;;;;;;;;;;;;;;;8.96;78.43;99209.78;5052386;28;20015;-71
2021/12/28 04:14:40;;;;;;;;;;;;;;;8.96;78.26;99213.41;5052129;28;19916;-72
2021/12/28 04:17:05;;;;;;;;;;;;;;;8.99;78.71;99209.22;5044893;28;19925;-71
2021/12/28 04:19:31;;;;;;;;;;;;;;;8.99;78.44;99198.97;5051797;28;19921;-70
2021/12/28 04:21:56;;;;;;;;;;;;;;;9.00;77.83;99200.66;5052875;28;19921;-69
2021/12/28 04:24:21;;;;;;;;;;;;;;;9.00;78.69;99203.41;5050433;28;19925;-71
2021/12/28 04:26:47;;;;;;;;;;;;;;;9.04;78.12;99207.28;5049625;28;19936;-71
2021/12/28 04:29:12;;;;;;;;;;;;;;;9.03;78.27;99202.81;5051007;28;19921;-71
2021/12/28 04:31:37;;;;;;;;;;;;;;;9.05;78.76;99206.16;5052868;28;19974;-71
2021/12/28 04:34:02;;;;;;;;;;;;;;;9.05;78.77;99203.38;5046234;28;20362;-71
2021/12/28 04:36:27;;;;;;;;;;;;;;;9.07;78.42;99214.16;5050202;28;19921;-71
2021/12/28 04:38:53;;;;;;;;;;;;;;;9.07;78.58;99212.22;5054719;28;19928;-71
2021/12/28 04:41:18;;;;;;;;;;;;;;;9.08;78.43;99205.59;5056487;28;19924;-71
2021/12/28 04:43:46;;;;;;;;;;;;;;;9.08;78.61;99211.13;5051002;28;19928;-71
2021/12/28 04:46:11;;;;;;;;;;;;;;;9.09;78.36;99210.00;5056042;28;19917;-71
2021/12/28 04:48:36;;;;;;;;;;;;;;;9.10;78.74;99216.38;5055465;28;19920;-71
2021/12/28 04:51:02;;;;;;;;;;;;;;;9.10;78.81;99214.44;5055077;28;19920;-70
2021/12/28 04:53:27;;;;;;;;;;;;;;;9.12;78.63;99224.38;5053838;28;19917;-71
2021/12/28 04:55:52;;;;;;;;;;;;;;;9.12;78.90;99218.84;5054573;28;20323;-71
2021/12/28 04:58:18;;;;;;;;;;;;;;;9.11;78.68;99218.00;5055353;28;19956;-71
2021/12/28 05:00:44;;;;;;;;;;;;;;;9.12;78.99;99218.84;5054297;28;19924;-71
2021/12/28 05:03:09;;;;;;;;;;;;;;;9.14;78.49;99213.88;5054633;28;20311;-71
2021/12/28 05:05:35;;;;;;;;;;;;;;;9.14;78.52;99214.69;5052616;28;19925;-71
2021/12/28 05:08:02;;;;;;;;;;;;;;;9.16;78.92;99208.88;5046767;28;19982;-71
2021/12/28 05:10:27;;;;;;;;;;;;;;;9.17;78.91;99199.47;5055062;28;19980;-71
2021/12/28 05:12:52;;;;;;;;;;;;;;;9.17;78.61;99200.28;5054541;28;19920;-71
2021/12/28 05:15:18;;;;;;;;;;;;;;;9.16;78.96;99195.88;5055905;28;19945;-71
2021/12/28 05:17:44;;;;;;;;;;;;;;;9.15;78.87;99210.81;5052960;28;19920;-71
2021/12/28 05:20:09;;;;;;;;;;;;;;;9.17;78.64;99194.75;5050349;28;19967;-71
2021/12/28 05:22:34;;;;;;;;;;;;;;;9.16;79.27;99198.63;5040348;28;19921;-71
2021/12/28 05:24:59;;;;;;;;;;;;;;;9.16;78.97;99195.03;5049339;28;19925;-71
2021/12/28 05:27:25;;;;;;;;;;;;;;;9.16;79.03;99198.63;5055465;28;20006;-71
2021/12/28 05:29:50;;;;;;;;;;;;;;;9.16;78.76;99187.56;5055032;28;19927;-72
2021/12/28 05:32:16;;;;;;;;;;;;;;;9.17;79.27;99191.97;5050990;28;19928;-71
2021/12/28 05:34:41;;;;;;;;;;;;;;;9.16;78.83;99186.75;5053716;28;19921;-70
2021/12/28 05:37:06;;;;;;;;;;;;;;;9.16;78.73;99187.56;5051439;28;20332;-71
2021/12/28 05:39:31;;;;;;;;;;;;;;;9.17;79.47;99183.69;5054710;28;19921;-71
2021/12/28 05:41:57;;;;;;;;;;;;;;;9.17;79.16;99182.84;5055640;28;19927;-71
2021/12/28 05:44:23;;;;;;;;;;;;;;;9.18;78.85;99178.97;5054092;28;20017;-71
2021/12/28 05:46:49;;;;;;;;;;;;;;;9.19;79.23;99177.84;5054721;28;19956;-71
2021/12/28 05:49:14;;;;;;;;;;;;;;;9.19;78.93;99172.31;5054290;28;20311;-71
2021/12/28 05:51:40;;;;;;;;;;;;;;;9.21;78.78;99167.31;5052420;28;19921;-71
2021/12/28 05:54:05;;;;;;;;;;;;;;;9.21;78.61;99162.63;5053970;28;20368;-72
2021/12/28 05:56:30;;;;;;;;;;;;;;;9.21;79.45;99172.88;5053581;28;19920;-71
2021/12/28 05:58:56;;;;;;;;;;;;;;;9.22;79.24;99169.81;5054285;28;19928;-71
2021/12/28 06:01:21;;;;;;;;;;;;;;;9.23;79.42;99165.09;5052543;28;19928;-70
2021/12/28 06:03:46;;;;;;;;;;;;;;;9.21;79.27;99168.16;5053318;28;19990;-71
2021/12/28 06:06:11;;;;;;;;;;;;;;;9.20;79.10;99160.16;5049778;28;19936;-71
2021/12/28 06:08:36;;;;;;;;;;;;;;;9.20;79.29;99158.19;5054482;28;19924;-71
2021/12/28 06:11:03;;;;;;;;;;;;;;;9.22;78.46;99155.13;5054271;28;19924;-71
2021/12/28 06:13:29;;;;;;;;;;;;;;;9.22;78.64;99155.13;5054249;28;19920;-71
2021/12/28 06:15:54;;;;;;;;;;;;;;;9.22;79.13;99152.38;5050379;28;20397;-71
2021/12/28 06:18:19;;;;;;;;;;;;;;;9.22;79.20;99146.81;5054031;28;20376;-71
2021/12/28 06:20:44;;;;;;;;;;;;;;;9.23;79.31;99152.06;5047659;28;20020;-71
2021/12/28 06:23:11;;;;;;;;;;;;;;;9.25;79.36;99151.81;5045963;28;19931;-71
2021/12/28 06:25:37;;;;;;;;;;;;;;;9.26;79.37;99147.91;5049413;28;19929;-71
2021/12/28 06:28:04;;;;;;;;;;;;;;;9.26;78.91;99139.59;5046802;28;20011;-70
2021/12/28 06:30:30;;;;;;;;;;;;;;;9.25;79.27;99133.25;5049807;28;19977;-71
2021/12/28 06:32:55;;;;;;;;;;;;;;;9.25;78.70;99141.56;5047129;28;20296;-71
2021/12/28 06:35:20;;;;;;;;;;;;;;;9.26;78.57;99126.59;5042842;28;19917;-71
2021/12/28 06:37:45;;;;;;;;;;;;;;;9.27;78.80;99127.41;5048777;28;19973;-71
2021/12/28 06:40:11;;;;;;;;;;;;;;;9.27;79.06;99125.47;5047232;28;19995;-71
2021/12/28 06:42:36;;;;;;;;;;;;;;;9.27;79.23;99119.09;5050044;28;19936;-70
2021/12/28 06:45:02;;;;;;;;;;;;;;;9.27;79.01;99121.88;5041746;28;19935;-71
2021/12/28 06:47:28;;;;;;;;;;;;;;;9.27;79.21;99133.78;5034521;28;21649;-71
2021/12/28 06:49:53;;;;;;;;;;;;;;;9.27;78.82;99122.69;5044109;28;19964;-70
2021/12/28 06:52:18;;;;;;;;;;;;;;;9.26;78.84;99131.31;5040116;28;19961;-70
2021/12/28 06:54:44;;;;;;;;;;;;;;;9.25;78.88;99122.16;5041599;28;19947;-70
2021/12/28 06:57:10;;;;;;;;;;;;;;;9.27;79.05;99127.41;5044720;28;19940;-71
2021/12/28 06:59:37;;;;;;;;;;;;;;;9.27;79.17;99116.34;5041357;28;19927;-70
2021/12/28 07:02:03;;;;;;;;;;;;;;;9.27;78.90;99128.22;5046391;28;19974;-70
2021/12/28 07:04:28;;;;;;;;;;;;;;;9.26;79.20;99126.59;5046893;28;19921;-70
2021/12/28 07:06:53;;;;;;;;;;;;;;;9.27;79.23;99121.88;5052513;28;20265;-71
2021/12/28 07:09:18;;;;;;;;;;;;;;;9.28;78.71;99120.78;5051331;28;19971;-70
2021/12/28 07:11:43;;;;;;;;;;;;;;;9.27;78.84;99117.16;5044353;28;20451;-71
2021/12/28 07:14:09;;;;;;;;;;;;;;;9.28;79.11;99121.59;5046460;28;20462;-70
2021/12/28 07:16:34;;;;;;;;;;;;;;;9.28;79.01;99121.59;5053066;28;19927;-69
2021/12/28 07:18:59;;;;;;;;;;;;;;;9.28;79.17;99123.56;5051775;28;20407;-70
2021/12/28 07:21:24;;;;;;;;;;;;;;;9.28;78.91;99123.56;5047971;28;20011;-69
2021/12/28 07:23:49;;;;;;;;;;;;;;;9.28;78.51;99120.78;5049492;28;19998;-72
2021/12/28 07:26:14;;;;;;;;;;;;;;;9.29;78.93;99119.66;5049259;28;20365;-72
2021/12/28 07:28:41;;;;;;;;;;;;;;;9.30;79.07;99122.13;5039829;28;19967;-72
2021/12/28 07:31:07;;;;;;;;;;;;;;;9.30;78.98;99132.38;5046297;28;19983;-71
2021/12/28 07:33:32;;;;;;;;;;;;;;;9.30;79.09;99124.91;5049805;28;19921;-71
2021/12/28 07:35:58;;;;;;;;;;;;;;;9.29;79.55;99112.19;5049460;28;19923;-69
2021/12/28 07:38:23;;;;;;;;;;;;;;;9.28;79.26;99124.38;5044663;28;20011;-69
2021/12/28 07:40:48;;;;;;;;;;;;;;;9.27;79.26;99119.94;5032755;28;19956;-68
2021/12/28 07:43:13;;;;;;;;;;;;;;;9.26;79.23;99126.59;5044319;28;20447;-72
2021/12/28 07:45:38;;;;;;;;;;;;;;;9.27;79.55;99122.69;5045839;28;19991;-72
2021/12/28 07:48:04;;;;;;;;;;;;;;;9.30;79.33;99124.06;5043203;28;19964;-72
2021/12/28 07:50:29;;;;;;;;;;;;;;;9.29;79.82;99122.44;5047446;28;19925;-70
2021/12/28 07:52:55;;;;;;;;;;;;;;;9.28;79.65;99118.00;5036241;28;20380;-72
2021/12/28 07:55:21;;;;;;;;;;;;;;;9.27;79.47;99114.38;5039591;28;19928;-69
2021/12/28 07:57:46;;;;;;;;;;;;;;;9.27;79.55;99117.16;5044456;28;19921;-66
2021/12/28 08:00:13;;;;;;;;;;;;;;;9.28;79.41;99118.00;5042707;28;19970;-69
2021/12/28 08:02:40;;;;;;;;;;;;;;;9.30;79.51;99105.50;5039621;28;20391;-69
2021/12/28 08:05:05;;;;;;;;;;;;;;;9.30;79.39;99102.75;5043045;28;19925;-69
2021/12/28 08:07:31;;;;;;;;;;;;;;;9.31;79.29;99106.34;5042603;28;19917;-71
2021/12/28 08:09:56;;;;;;;;;;;;;;;9.31;80.15;99107.19;5041152;28;19925;-68
2021/12/28 08:12:21;;;;;;;;;;;;;;;9.29;80.08;99103.03;5046880;28;19971;-67
2021/12/28 08:14:46;;;;;;;;;;;;;;;9.29;80.26;99114.13;5045180;28;19928;-68
2021/12/28 08:17:11;;;;;;;;;;;;;;;9.28;80.61;99112.47;5047606;28;19929;-69
2021/12/28 08:19:37;;;;;;;;;;;;;;;9.28;80.17;99112.47;5049194;28;19928;-69
2021/12/28 08:22:03;;;;;;;;;;;;;;;9.28;80.31;99112.47;5039845;28;20023;-68
2021/12/28 08:24:29;;;;;;;;;;;;;;;9.30;80.23;99111.06;5047373;28;20020;-67
2021/12/28 08:26:54;;;;;;;;;;;;;;;9.31;79.88;99109.97;5043256;28;19991;-69
2021/12/28 08:29:19;;;;;;;;;;;;;;;9.32;80.14;99103.31;5041129;28;19929;-71
2021/12/28 08:31:44;;;;;;;;;;;;;;;9.34;79.63;99105.78;5047097;28;19952;-73
2021/12/28 08:34:10;;;;;;;;;;;;;;;9.34;79.83;99100.22;5040677;28;20281;-71
2021/12/28 08:36:35;;;;;;;;;;;;;;;9.36;79.74;99097.19;5038330;28;19936;-67
2021/12/28 08:39:00;;;;;;;;;;;;;;;9.36;79.74;99092.47;5045687;28;20035;-67
2021/12/28 08:41:25;;;;;;;;;;;;;;;9.38;80.14;99094.94;5044753;28;19925;-67
2021/12/28 08:43:51;;;;;;;;;;;;;;;9.40;80.09;99092.72;5046181;28;19931;-68
2021/12/28 08:46:16;;;;;;;;;;;;;;;9.41;79.58;99095.19;5049111;28;19917;-68
2021/12/28 08:48:41;;;;;;;;;;;;;;;9.41;80.03;99095.19;5043938;28;19971;-68
2021/12/28 08:51:07;;;;;;;;;;;;;;;9.41;80.68;99094.38;5039961;28;19921;-69
2021/12/28 08:53:32;;;;;;;;;;;;;;;9.39;81.09;99094.66;5053100;28;20016;-68
2021/12/28 08:55:57;;;;;;;;;;;;;;;9.40;80.64;99096.31;5047603;28;19967;-68
2021/12/28 08:58:23;;;;;;;;;;;;;;;9.41;80.12;99094.38;5050510;28;21164;-68
2021/12/28 09:00:48;;;;;;;;;;;;;;;9.42;80.64;99094.06;5040644;28;19929;-69
2021/12/28 09:03:13;;;;;;;;;;;;;;;9.42;80.18;99094.06;5047849;28;19983;-68
2021/12/28 09:05:38;;;;;;;;;;;;;;;9.42;80.37;99088.53;5049311;28;19921;-69
2021/12/28 09:08:08;;;;;;;;;;;;;;;9.44;80.33;99089.09;5047885;28;20142;-71
2021/12/28 09:10:34;;;;;;;;;;;;;;;9.45;81.01;99087.97;5046339;28;19928;-69
2021/12/28 09:12:59;;;;;;;;;;;;;;;9.45;80.75;99085.19;5047807;28;19920;-71
2021/12/28 09:15:24;;;;;;;;;;;;;;;9.45;80.06;99079.66;5052752;28;19928;-71
2021/12/28 09:17:49;;;;;;;;;;;;;;;9.46;80.71;99077.72;5053877;28;19920;-71
2021/12/28 09:20:18;;;;;;;;;;;;;;;9.45;80.72;99079.66;5050805;28;20621;-72
2021/12/28 09:22:43;;;;;;;;;;;;;;;9.48;81.16;99073.56;5047719;28;19927;-69
2021/12/28 09:25:09;;;;;;;;;;;;;;;9.48;81.29;99072.72;5036395;28;19952;-69
2021/12/28 09:27:35;;;;;;;;;;;;;;;9.49;80.47;99064.13;5045634;28;20024;-69
2021/12/28 09:30:00;;;;;;;;;;;;;;;9.51;81.35;99066.59;5042848;28;19974;-70
2021/12/28 09:32:25;;;;;;;;;;;;;;;9.52;81.03;99068.25;5046842;28;19929;-70
2021/12/28 09:34:52;;;;;;;;;;;;;;;9.54;81.46;99053.00;5044947;28;19927;-71
2021/12/28 09:37:19;;;;;;;;;;;;;;;9.54;81.06;99061.28;5046359;28;19920;-69
2021/12/28 09:39:44;;;;;;;;;;;;;;;9.56;80.93;99053.53;5040131;28;19925;-69
2021/12/28 09:42:10;;;;;;;;;;;;;;;9.58;81.01;99058.78;5043345;28;19983;-69
2021/12/28 09:44:35;;;;;;;;;;;;;;;9.59;81.23;99055.75;5045505;28;19986;-70
2021/12/28 09:47:01;;;;;;;;;;;;;;;9.61;81.22;99054.63;5045329;28;19925;-71
2021/12/28 09:49:28;;;;;;;;;;;;;;;9.62;81.63;99047.94;5046145;28;20024;-73
2021/12/28 09:51:56;;;;;;;;;;;;;;;9.62;81.14;99050.72;5046357;28;19921;-72
2021/12/28 09:54:26;;;;;;;;;;;;;;;9.63;80.85;99035.75;5042582;28;19957;-71
2021/12/28 09:56:51;;;;;;;;;;;;;;;9.65;80.33;99041.84;5045773;28;19934;-70
2021/12/28 09:59:17;;;;;;;;;;;;;;;9.66;80.90;99032.41;5045940;28;20510;-71
2021/12/28 10:01:42;;;;;;;;;;;;;;;9.67;81.12;99040.44;5041160;28;19929;-70
2021/12/28 10:04:07;;;;;;;;;;;;;;;9.70;81.16;99027.91;5045025;28;19920;-70
2021/12/28 10:06:32;;;;;;;;;;;;;;;9.71;82.37;99032.38;5049812;28;20023;-71
2021/12/28 10:09:09;;;;;;;;;;;;;;;9.71;81.99;99029.59;5047292;28;20019;-70
2021/12/28 10:11:36;;;;;;;;;;;;;;;9.71;81.55;99021.28;5047707;28;19921;-70
2021/12/28 10:14:21;;;;;;;;;;;;;;;9.72;81.22;99022.94;5044710;28;20025;-70
2021/12/28 10:16:50;;;;;;;;;;;;;;;9.73;80.51;99016.25;5044039;28;19921;-71
2021/12/28 10:19:28;;;;;;;;;;;;;;;9.74;81.56;99020.69;5047962;28;20363;-71
2021/12/28 10:21:54;;;;;;;;;;;;;;;9.74;81.52;99004.06;5048823;28;19924;-70
2021/12/28 10:24:32;;;;;;;;;;;;;;;9.75;81.69;98994.66;5049689;28;19924;-69
2021/12/28 10:27:13;;;;;;;;;;;;;;;9.75;82.32;99001.00;5045304;28;21111;-69
2021/12/28 10:29:39;;;;;;;;;;;;;;;9.75;81.47;98989.94;5045020;28;20008;-70
2021/12/28 10:32:19;;;;;;;;;;;;;;;9.78;81.48;98981.00;5041879;28;20003;-70
2021/12/28 10:34:45;;;;;;;;;;;;;;;9.84;81.80;98967.94;5044137;28;20337;-70
2021/12/28 10:37:17;;;;;;;;;;;;;;;9.86;81.25;98960.13;5036324;28;19944;-67
2021/12/28 10:39:47;;;;;;;;;;;;;;;9.89;81.33;98965.09;5041688;28;19920;-67
2021/12/28 10:42:31;;;;;;;;;;;;;;;9.90;81.95;98961.19;5040994;28;19931;-65
2021/12/28 10:44:56;;;;;;;;;;;;;;;9.91;81.87;98960.09;5047462;28;19925;-65
2021/12/28 10:47:25;;;;;;;;;;;;;;;9.92;81.13;98958.97;5046005;28;19924;-67
2021/12/28 10:49:51;;;;;;;;;;;;;;;9.91;81.87;98962.06;5041242;28;19921;-66
2021/12/28 10:52:29;;;;;;;;;;;;;;;9.91;81.55;98965.66;5047978;28;20372;-66
2021/12/28 10:55:13;;;;;;;;;;;;;;;9.94;80.76;98964.22;5046041;28;20396;-65
2021/12/28 10:57:39;;;;;;;;;;;;;;;9.93;81.26;98960.63;5045121;28;19921;-66
2021/12/28 11:00:20;;;;;;;;;;;;;;;9.94;81.03;98959.53;5045775;28;20043;-67
2021/12/28 11:02:45;;;;;;;;;;;;;;;9.95;81.03;98947.31;5041945;28;19921;-67
2021/12/28 11:05:30;;;;;;;;;;;;;;;9.98;81.19;98951.41;5046068;28;19939;-66
2021/12/28 11:07:56;;;;;;;;;;;;;;;9.94;80.87;98942.88;5044669;28;19916;-67
2021/12/28 11:10:25;;;;;;;;;;;;;;;9.95;81.93;98938.16;5044333;28;19920;-67
2021/12/28 11:12:50;;;;;;;;;;;;;;;9.95;81.31;98939.00;5048168;28;20011;-67
2021/12/28 11:15:19;;;;;;;;;;;;;;;9.95;81.11;98932.63;5047740;28;20402;-67
2021/12/28 11:17:46;;;;;;;;;;;;;;;9.95;82.65;98924.31;5046621;28;19932;-70
2021/12/28 11:20:12;;;;;;;;;;;;;;;9.93;81.28;98935.66;5048775;28;19925;-70
2021/12/28 11:23:01;;;;;;;;;;;;;;;9.93;81.56;98921.00;5048393;28;20019;-71
2021/12/28 11:25:27;;;;;;;;;;;;;;;9.93;81.68;98926.53;5050136;28;19924;-71
2021/12/28 11:28:10;;;;;;;;;;;;;;;9.93;81.58;98916.28;5047108;28;19929;-72
2021/12/28 11:30:35;;;;;;;;;;;;;;;9.93;81.78;98910.72;5044152;28;20400;-68
2021/12/28 11:33:07;;;;;;;;;;;;;;;9.95;81.84;98925.13;5037566;28;19936;-70
2021/12/28 11:35:33;;;;;;;;;;;;;;;9.97;82.51;98924.81;5045178;28;19920;-67
2021/12/28 11:37:59;;;;;;;;;;;;;;;9.97;81.98;98920.09;5047399;28;20654;-66
2021/12/28 11:40:24;;;;;;;;;;;;;;;9.98;82.56;98907.91;5046129;28;19924;-66
2021/12/28 11:42:50;;;;;;;;;;;;;;;9.98;81.85;98919.00;5045400;28;19988;-66
2021/12/28 11:45:15;;;;;;;;;;;;;;;9.97;82.36;98917.34;5036205;28;19924;-65
2021/12/28 11:47:40;;;;;;;;;;;;;;;10.00;81.57;98896.53;5041362;28;19932;-66
2021/12/28 11:50:08;;;;;;;;;;;;;;;9.96;82.12;98915.69;5039127;28;19936;-67
2021/12/28 11:52:33;;;;;;;;;;;;;;;9.95;81.59;98904.91;5041754;28;20387;-66
2021/12/28 11:54:59;;;;;;;;;;;;;;;9.95;81.48;98925.13;5035200;28;19924;-67
2021/12/28 11:57:29;;;;;;;;;;;;;;;9.94;81.23;98934.56;5044697;28;19921;-66
2021/12/28 12:00:06;;;;;;;;;;;;;;;9.92;81.50;98931.25;5039275;28;19928;-71
2021/12/28 12:02:37;;;;;;;;;;;;;;;9.90;81.56;98925.19;5035714;28;20402;-68
2021/12/28 12:05:11;;;;;;;;;;;;;;;9.88;81.33;98921.88;5042768;28;19921;-69
2021/12/28 12:07:37;;;;;;;;;;;;;;;9.89;81.18;98925.47;5049225;28;20458;-71
2021/12/28 12:10:12;;;;;;;;;;;;;;;9.88;81.24;98921.88;5041765;28;19925;-68
2021/12/28 12:12:53;;;;;;;;;;;;;;;9.89;81.04;98923.53;5045401;28;19921;-69
2021/12/28 12:15:19;;;;;;;;;;;;;;;9.86;80.88;98912.22;5042214;28;19964;-68
2021/12/28 12:17:45;;;;;;;;;;;;;;;9.86;80.55;98912.22;5037593;28;20019;-69
2021/12/28 12:20:16;;;;;;;;;;;;;;;9.84;80.49;98929.16;5042751;28;19936;-65
2021/12/28 12:22:43;;;;;;;;;;;;;;;9.84;80.72;98918.88;5037300;28;19925;-66
2021/12/28 12:25:13;;;;;;;;;;;;;;;9.87;80.76;98914.69;5040146;28;19928;-66
2021/12/28 12:27:38;;;;;;;;;;;;;;;9.88;80.68;98916.34;5041445;28;19921;-66
2021/12/28 12:30:24;;;;;;;;;;;;;;;9.89;80.45;98925.47;5045365;28;19940;-66
2021/12/28 12:32:55;;;;;;;;;;;;;;;9.89;80.12;98934.63;5040885;28;20384;-66
2021/12/28 12:35:31;;;;;;;;;;;;;;;9.89;79.94;98923.53;5046644;28;19979;-65
2021/12/28 12:37:57;;;;;;;;;;;;;;;9.88;79.85;98913.56;5035852;28;19932;-63
2021/12/28 12:40:22;;;;;;;;;;;;;;;9.90;79.89;98916.88;5038833;28;19932;-67
2021/12/28 12:43:06;;;;;;;;;;;;;;;9.91;79.63;98920.47;5042071;28;19920;-68
2021/12/28 12:45:57;;;;;;;;;;;;;;;9.92;79.44;98920.19;5048771;28;19921;-66
2021/12/28 12:48:30;;;;;;;;;;;;;;;9.94;79.41;98926.25;5041218;28;19923;-67
2021/12/28 12:51:15;;;;;;;;;;;;;;;9.97;79.21;98933.97;5041813;28;19921;-66
2021/12/28 12:53:54;;;;;;;;;;;;;;;9.95;78.88;98922.34;5045993;28;20372;-66
2021/12/28 12:56:24;;;;;;;;;;;;;;;9.95;78.79;98925.13;5044682;28;20359;-66
2021/12/28 12:58:50;;;;;;;;;;;;;;;9.96;78.31;98928.72;5043705;28;19975;-67